createdAt,value
2022-10-21T00:02:14.456Z,100647.28
2022-10-21T00:04:42.087Z,100639.16
2022-10-21T00:07:09.395Z,100642.94
2022-10-21T00:09:36.698Z,100634.69
2022-10-21T00:12:04.273Z,100645.78
2022-10-21T00:14:31.624Z,100643.97
2022-10-21T00:16:59.236Z,100647.44
2022-10-21T00:19:26.821Z,100642.28
2022-10-21T00:21:54.147Z,100638.66
2022-10-21T00:24:21.547Z,100639.78
2022-10-21T00:26:49.970Z,100639.28
2022-10-21T00:29:17.300Z,100632.00
2022-10-21T00:31:44.635Z,100622.78
2022-10-21T00:34:12.235Z,100624.72
2022-10-21T00:36:39.593Z,100628.69
2022-10-21T00:39:06.880Z,100619.78
2022-10-21T00:41:34.515Z,100609.44
2022-10-21T00:44:02.699Z,100602.72
2022-10-21T00:46:35.939Z,100611.41
2022-10-21T00:49:13.007Z,100607.25
2022-10-21T00:51:40.319Z,100616.44
2022-10-21T00:54:07.913Z,100599.56
2022-10-21T00:56:35.319Z,100605.25
2022-10-21T00:59:03.677Z,100603.19
2022-10-21T01:01:31.394Z,100599.69
2022-10-21T01:03:58.809Z,100597.59
2022-10-21T01:06:26.359Z,100605.50
2022-10-21T01:08:54.776Z,100597.84
2022-10-21T01:11:22.612Z,100588.50
2022-10-21T01:14:22.198Z,100588.22
2022-10-21T01:17:20.884Z,100585.28
2022-10-21T01:20:18.619Z,100594.69
2022-10-21T01:23:07.288Z,100588.78
2022-10-21T01:26:12.182Z,100588.91
2022-10-21T01:28:55.629Z,100585.50
2022-10-21T01:31:47.903Z,100589.09
2022-10-21T01:34:49.911Z,100589.63
2022-10-21T01:37:22.843Z,100579.59
2022-10-21T01:39:54.090Z,100575.44
2022-10-21T01:42:30.368Z,100573.84
2022-10-21T01:45:10.281Z,100558.56
2022-10-21T01:47:40.005Z,100550.62
2022-10-21T01:50:16.812Z,100552.41
2022-10-21T01:52:44.966Z,100563.16
2022-10-21T01:55:14.270Z,100561.63
2022-10-21T01:57:43.452Z,100558.72
2022-10-21T02:00:11.109Z,100566.78
2022-10-21T02:02:40.495Z,100578.34
2022-10-21T02:05:11.028Z,100563.56
2022-10-21T02:07:38.332Z,100561.50
2022-10-21T02:10:05.985Z,100562.91
2022-10-21T02:12:33.859Z,100555.37
2022-10-21T02:15:01.183Z,100562.47
2022-10-21T02:17:28.497Z,100560.94
2022-10-21T02:19:57.440Z,100571.12
2022-10-21T02:22:24.744Z,100578.53
2022-10-21T02:24:54.742Z,100575.16
2022-10-21T02:27:22.480Z,100574.03
2022-10-21T02:29:50.909Z,100572.84
2022-10-21T02:32:57.237Z,100572.31
2022-10-21T02:35:46.342Z,100585.38
2022-10-21T02:38:34.106Z,100577.66
2022-10-21T02:41:02.868Z,100579.47
2022-10-21T02:43:41.611Z,100561.22
2022-10-21T02:46:10.778Z,100557.06
2022-10-21T02:48:38.700Z,100560.09
2022-10-21T02:51:07.038Z,100564.50
2022-10-21T02:53:34.704Z,100569.88
2022-10-21T02:56:02.048Z,100556.50
2022-10-21T02:58:29.368Z,100558.16
2022-10-21T03:00:57.046Z,100559.91
2022-10-21T03:03:24.520Z,100561.78
2022-10-21T03:05:51.860Z,100561.44
2022-10-21T03:08:19.440Z,100579.25
2022-10-21T03:10:52.966Z,100575.38
2022-10-21T03:13:22.165Z,100570.94
2022-10-21T03:15:50.072Z,100571.34
2022-10-21T03:18:17.472Z,100561.72
2022-10-21T03:20:45.218Z,100560.88
2022-10-21T03:23:12.590Z,100562.31
2022-10-21T03:25:39.886Z,100568.47
2022-10-21T03:28:07.461Z,100566.59
2022-10-21T03:30:34.801Z,100558.22
2022-10-21T03:33:02.113Z,100540.09
2022-10-21T03:35:29.686Z,100549.88
2022-10-21T03:40:30.342Z,100547.47
2022-10-21T03:42:58.297Z,100547.22
2022-10-21T03:45:26.132Z,100546.13
2022-10-21T03:47:53.769Z,100536.34
2022-10-21T03:50:25.970Z,100538.09
2022-10-21T03:52:54.389Z,100532.16
2022-10-21T03:55:24.171Z,100527.53
2022-10-21T03:57:52.105Z,100521.47
2022-10-21T04:00:19.838Z,100537.25
2022-10-21T04:02:47.424Z,100519.66
2022-10-21T04:05:15.092Z,100522.44
2022-10-21T04:07:42.441Z,100519.94
2022-10-21T04:10:10.440Z,100530.06
2022-10-21T04:12:38.214Z,100512.06
2022-10-21T04:15:06.172Z,100509.97
2022-10-21T04:17:33.759Z,100511.41
2022-10-21T04:20:01.076Z,100514.44
2022-10-21T04:22:28.420Z,100514.25
2022-10-21T04:24:58.593Z,100510.16
2022-10-21T04:27:28.213Z,100516.97
2022-10-21T04:29:55.805Z,100514.63
2022-10-21T04:32:23.096Z,100517.88
2022-10-21T04:34:50.407Z,100503.06
2022-10-21T04:37:18.008Z,100498.31
2022-10-21T04:39:45.406Z,100481.75
2022-10-21T04:42:12.711Z,100481.72
2022-10-21T04:44:40.306Z,100487.63
2022-10-21T04:47:07.640Z,100480.31
2022-10-21T04:49:34.978Z,100481.09
2022-10-21T04:52:02.545Z,100479.84
2022-10-21T04:54:29.897Z,100478.03
2022-10-21T04:56:57.209Z,100475.59
2022-10-21T04:59:24.828Z,100475.19
2022-10-21T05:01:52.383Z,100475.59
2022-10-21T05:04:19.822Z,100482.75
2022-10-21T05:06:47.393Z,100483.34
2022-10-21T05:09:14.866Z,100486.22
2022-10-21T05:11:42.219Z,100484.50
2022-10-21T05:14:09.835Z,100474.72
2022-10-21T05:16:37.170Z,100471.16
2022-10-21T05:19:04.499Z,100468.47
2022-10-21T05:21:32.127Z,100475.34
2022-10-21T05:23:59.490Z,100471.56
2022-10-21T05:26:28.871Z,100484.66
2022-10-21T05:28:57.596Z,100478.53
2022-10-21T05:31:25.332Z,100485.50
2022-10-21T05:33:52.690Z,100481.50
2022-10-21T05:36:23.247Z,100485.34
2022-10-21T05:38:51.821Z,100481.09
2022-10-21T05:41:19.540Z,100489.62
2022-10-21T05:43:47.109Z,100490.47
2022-10-21T05:46:14.505Z,100473.63
2022-10-21T05:48:41.878Z,100465.47
2022-10-21T05:51:09.559Z,100454.59
2022-10-21T05:53:36.912Z,100444.69
2022-10-21T05:56:06.982Z,100456.47
2022-10-21T05:58:35.331Z,100472.91
2022-10-21T06:01:02.720Z,100493.66
2022-10-21T06:03:31.626Z,100497.50
2022-10-21T06:05:59.768Z,100496.12
2022-10-21T06:08:27.706Z,100506.78
2022-10-21T06:11:05.729Z,100510.56
2022-10-21T06:13:33.145Z,100514.31
2022-10-21T06:16:00.786Z,100525.25
2022-10-21T06:18:28.143Z,100520.03
2022-10-21T06:20:55.514Z,100515.69
2022-10-21T06:23:23.145Z,100512.41
2022-10-21T06:26:02.490Z,100514.06
2022-10-21T06:28:31.029Z,100525.25
2022-10-21T06:30:58.519Z,100523.75
2022-10-21T06:33:27.280Z,100533.25
2022-10-21T06:35:55.542Z,100532.19
2022-10-21T06:38:23.447Z,100540.72
2022-10-21T06:40:50.788Z,100532.59
2022-10-21T06:43:18.568Z,100514.09
2022-10-21T06:45:45.980Z,100510.84
2022-10-21T06:48:13.839Z,100507.78
2022-10-21T06:50:41.474Z,100505.72
2022-10-21T06:53:08.840Z,100506.62
2022-10-21T06:55:36.185Z,100491.81
2022-10-21T06:58:04.056Z,100505.91
2022-10-21T07:00:31.409Z,100500.34
2022-10-21T07:02:58.862Z,100495.81
2022-10-21T07:05:26.474Z,100502.22
2022-10-21T07:07:53.884Z,100504.94
2022-10-21T07:10:21.213Z,100493.88
2022-10-21T07:12:48.865Z,100496.16
2022-10-21T07:15:16.213Z,100501.84
2022-10-21T07:17:43.549Z,100499.56
2022-10-21T07:20:11.152Z,100496.78
2022-10-21T07:22:38.478Z,100493.44
2022-10-21T07:25:06.298Z,100502.94
2022-10-21T07:27:33.930Z,100508.19
2022-10-21T07:30:01.326Z,100510.25
2022-10-21T07:32:28.675Z,100514.72
2022-10-21T07:34:56.295Z,100518.09
2022-10-21T07:37:23.609Z,100519.72
2022-10-21T07:39:50.924Z,100527.03
2022-10-21T07:42:18.494Z,100514.34
2022-10-21T07:44:45.857Z,100513.69
2022-10-21T07:47:13.216Z,100501.78
2022-10-21T07:49:40.810Z,100496.94
2022-10-21T07:52:08.208Z,100495.81
2022-10-21T07:54:35.656Z,100495.72
2022-10-21T07:57:03.287Z,100493.88
2022-10-21T07:59:30.605Z,100485.78
2022-10-21T08:01:57.964Z,100482.28
2022-10-21T08:04:29.739Z,100473.91
2022-10-21T08:06:57.312Z,100467.84
2022-10-21T08:09:26.277Z,100458.81
2022-10-21T08:11:53.874Z,100472.38
2022-10-21T08:14:21.199Z,100474.13
2022-10-21T08:16:53.024Z,100477.53
2022-10-21T08:19:24.025Z,100467.94
2022-10-21T08:21:51.318Z,100463.97
2022-10-21T08:24:18.672Z,100454.63
2022-10-21T08:26:46.270Z,100463.22
2022-10-21T08:29:13.581Z,100459.44
2022-10-21T08:31:40.993Z,100454.66
2022-10-21T08:34:08.850Z,100457.09
2022-10-21T08:36:36.629Z,100456.50
2022-10-21T08:39:04.070Z,100452.91
2022-10-21T08:41:31.538Z,100443.41
2022-10-21T08:44:17.543Z,100426.28
2022-10-21T08:46:47.694Z,100425.22
2022-10-21T08:49:20.540Z,100438.97
2022-10-21T08:51:54.255Z,100427.09
2022-10-21T08:54:24.650Z,100416.59
2022-10-21T08:56:52.267Z,100417.06
2022-10-21T08:59:21.699Z,100400.75
2022-10-21T09:01:55.394Z,100400.44
2022-10-21T09:04:44.188Z,100403.13
2022-10-21T09:07:38.508Z,100401.75
2022-10-21T09:10:28.188Z,100405.75
2022-10-21T09:13:12.966Z,100405.38
2022-10-21T09:15:51.583Z,100401.75
2022-10-21T09:18:34.957Z,100393.09
2022-10-21T09:21:23.516Z,100391.44
2022-10-21T09:24:11.456Z,100388.75
2022-10-21T09:26:41.677Z,100385.41
2022-10-21T09:29:12.287Z,100376.03
2022-10-21T09:31:39.927Z,100380.69
2022-10-21T09:34:07.332Z,100373.25
2022-10-21T09:36:36.469Z,100379.78
2022-10-21T09:39:12.178Z,100366.41
2022-10-21T09:41:41.549Z,100360.06
2022-10-21T09:44:17.608Z,100352.34
2022-10-21T09:46:45.826Z,100365.59
2022-10-21T09:50:06.533Z,100360.72
2022-10-21T09:52:21.158Z,100351.22
2022-10-21T09:54:48.809Z,100331.66
2022-10-21T09:57:36.297Z,100329.88
2022-10-21T10:00:06.028Z,100340.31
2022-10-21T10:02:39.837Z,100338.72
2022-10-21T10:05:36.923Z,100335.75
2022-10-21T10:08:29.246Z,100327.63
2022-10-21T10:11:08.606Z,100328.16
2022-10-21T10:13:36.830Z,100313.03
2022-10-21T10:16:13.973Z,100306.34
2022-10-21T10:18:42.043Z,100309.97
2022-10-21T10:21:16.579Z,100295.22
2022-10-21T10:23:45.657Z,100281.88
2022-10-21T10:26:27.832Z,100290.88
2022-10-21T10:28:58.365Z,100280.84
2022-10-21T10:31:31.526Z,100278.53
2022-10-21T10:34:01.130Z,100276.16
2022-10-21T10:36:36.886Z,100291.63
2022-10-21T10:39:07.641Z,100276.44
2022-10-21T10:41:37.961Z,100266.56
2022-10-21T10:44:18.671Z,100268.34
2022-10-21T10:46:49.261Z,100259.69
2022-10-21T10:49:23.989Z,100249.69
2022-10-21T10:52:10.569Z,100250.63
2022-10-21T10:54:38.221Z,100263.06
2022-10-21T10:57:06.425Z,100238.31
2022-10-21T11:00:04.452Z,100229.94
2022-10-21T11:02:40.960Z,100217.63
2022-10-21T11:05:23.603Z,100236.84
2022-10-21T11:07:55.516Z,100222.97
2022-10-21T11:10:38.002Z,100216.66
2022-10-21T11:13:10.497Z,100216.03
2022-10-21T11:16:12.372Z,100218.94
2022-10-21T11:18:49.436Z,100206.44
2022-10-21T11:21:42.582Z,100212.19
2022-10-21T11:24:31.773Z,100214.84
2022-10-21T11:27:13.471Z,100202.84
2022-10-21T11:30:01.103Z,100197.59
2022-10-21T11:33:00.871Z,100189.84
2022-10-21T11:35:57.397Z,100183.28
2022-10-21T11:38:46.541Z,100182.91
2022-10-21T11:41:25.671Z,100167.97
2022-10-21T11:44:10.879Z,100157.69
2022-10-21T11:46:40.308Z,100143.84
2022-10-21T11:49:29.261Z,100162.06
2022-10-21T11:51:59.702Z,100163.59
2022-10-21T11:55:08.368Z,100160.19
2022-10-21T11:58:08.492Z,100154.12
2022-10-21T12:00:52.280Z,100144.91
2022-10-21T12:03:48.961Z,100137.69
2022-10-21T12:06:28.172Z,100136.22
2022-10-21T12:09:03.087Z,100131.59
2022-10-21T12:11:39.010Z,100130.28
2022-10-21T12:14:30.892Z,100133.69
2022-10-21T12:16:59.862Z,100134.12
2022-10-21T12:19:27.433Z,100128.50
2022-10-21T12:21:54.780Z,100126.50
2022-10-21T12:24:41.921Z,100131.56
2022-10-21T12:27:24.573Z,100133.34
2022-10-21T12:30:23.431Z,100118.19
2022-10-21T12:33:18.225Z,100126.13
2022-10-21T12:35:50.439Z,100110.78
2022-10-21T12:38:26.076Z,100121.87
2022-10-21T12:41:26.867Z,100113.12
2022-10-21T12:44:03.369Z,100113.25
2022-10-21T12:46:40.030Z,100110.97
2022-10-21T12:49:24.206Z,100110.94
2022-10-21T12:51:54.564Z,100102.63
2022-10-21T12:54:26.702Z,100087.22
2022-10-21T12:57:08.179Z,100087.91
2022-10-21T12:59:38.005Z,100093.59
2022-10-21T13:02:05.150Z,100096.72
2022-10-21T13:04:32.351Z,100087.94
2022-10-21T13:07:27.830Z,100087.34
2022-10-21T13:09:55.020Z,100098.03
2022-10-21T13:12:25.582Z,100097.75
2022-10-21T13:14:56.657Z,100089.44
2022-10-21T13:17:28.491Z,100082.81
2022-10-21T13:20:14.567Z,100079.91
2022-10-21T13:22:43.287Z,100079.44
2022-10-21T13:25:16.323Z,100070.19
2022-10-21T13:27:51.678Z,100074.94
2022-10-21T13:30:35.997Z,100060.63
2022-10-21T13:33:07.328Z,100056.91
2022-10-21T13:35:48.132Z,100053.97
2022-10-21T13:38:27.210Z,100064.84
2022-10-21T13:41:04.629Z,100061.34
2022-10-21T13:43:32.067Z,100056.31
2022-10-21T13:46:23.443Z,100054.03
2022-10-21T13:48:51.058Z,100047.69
2022-10-21T13:51:18.199Z,100055.56
2022-10-21T13:53:45.978Z,100046.78
2022-10-21T13:56:30.082Z,100045.50
2022-10-21T13:58:57.443Z,100040.41
2022-10-21T14:01:27.254Z,100035.09
2022-10-21T14:03:56.394Z,100036.38
2022-10-21T14:06:32.368Z,100040.66
2022-10-21T14:09:00.403Z,100027.16
2022-10-21T14:11:33.377Z,100037.31
2022-10-21T14:14:06.606Z,100033.84
2022-10-21T14:16:35.851Z,100025.56
2022-10-21T14:19:06.760Z,100023.09
2022-10-21T14:21:36.688Z,100014.88
2022-10-21T14:24:04.247Z,100020.81
2022-10-21T14:26:32.448Z,100022.31
2022-10-21T14:29:00.817Z,100008.97
2022-10-21T14:31:28.184Z,100020.41
2022-10-21T14:33:55.521Z,100017.81
2022-10-21T14:36:25.069Z,100014.69
2022-10-21T14:38:53.971Z,100019.63
2022-10-21T14:41:24.585Z,100020.84
2022-10-21T14:43:52.992Z,100019.91
2022-10-21T14:46:20.385Z,100011.00
2022-10-21T14:48:48.822Z,100013.94
2022-10-21T14:51:21.169Z,100007.22
2022-10-21T14:53:58.498Z,100012.84
2022-10-21T14:56:33.800Z,100013.37
2022-10-21T14:59:03.598Z,100011.84
2022-10-21T15:01:31.187Z,100018.72
2022-10-21T15:03:59.526Z,100004.09
2022-10-21T15:06:28.796Z,100012.97
2022-10-21T15:08:56.430Z,100009.19
2022-10-21T15:11:26.544Z,100001.25
2022-10-21T15:14:06.306Z,99998.66
2022-10-21T15:19:07.608Z,99983.97
2022-10-21T15:21:45.454Z,99984.06
2022-10-21T15:24:46.245Z,99982.47
2022-10-21T15:27:26.134Z,99999.03
2022-10-21T15:29:53.888Z,99989.28
2022-10-21T15:32:25.643Z,99991.31
2022-10-21T15:34:54.289Z,100001.19
2022-10-21T15:37:21.904Z,99998.72
2022-10-21T15:39:49.260Z,99991.75
2022-10-21T15:42:18.156Z,99993.81
2022-10-21T15:44:49.522Z,99995.75
2022-10-21T15:47:18.592Z,99992.16
2022-10-21T15:49:46.730Z,99989.41
2022-10-21T15:52:14.089Z,99995.00
2022-10-21T15:54:41.718Z,99989.91
2022-10-21T15:57:19.856Z,99994.22
2022-10-21T15:59:47.548Z,99987.97
2022-10-21T16:02:17.084Z,99978.09
2022-10-21T16:04:45.277Z,99979.50
2022-10-21T16:07:34.170Z,99980.44
2022-10-21T16:10:03.638Z,99993.03
2022-10-21T16:12:31.223Z,99991.81
2022-10-21T16:14:58.550Z,100002.09
2022-10-21T16:17:28.926Z,100009.22
2022-10-21T16:19:56.250Z,100001.69
2022-10-21T16:22:23.584Z,99993.03
2022-10-21T16:24:51.217Z,100000.97
2022-10-21T16:27:31.336Z,100004.84
2022-10-21T16:30:34.723Z,100004.56
2022-10-21T16:33:02.033Z,100017.66
2022-10-21T16:35:29.634Z,100002.69
2022-10-21T16:37:56.984Z,100007.63
2022-10-21T16:40:25.875Z,100008.00
2022-10-21T16:42:53.631Z,100001.41
2022-10-21T16:45:21.856Z,100002.53
2022-10-21T16:47:52.557Z,99998.47
2022-10-21T16:50:22.909Z,100001.91
2022-10-21T16:52:50.355Z,99995.06
2022-10-21T16:55:17.812Z,100003.91
2022-10-21T16:57:45.467Z,100001.53
2022-10-21T17:00:13.583Z,99997.66
2022-10-21T17:02:40.919Z,99994.44
2022-10-21T17:05:08.879Z,99997.56
2022-10-21T17:07:36.476Z,100004.94
2022-10-21T17:10:04.311Z,100005.72
2022-10-21T17:12:33.364Z,100005.94
2022-10-21T17:15:00.762Z,99988.41
2022-10-21T17:17:28.182Z,99993.66
2022-10-21T17:19:55.796Z,99995.91
2022-10-21T17:22:23.161Z,99990.97
2022-10-21T17:24:50.514Z,99985.13
2022-10-21T17:27:19.651Z,99993.31
2022-10-21T17:29:47.225Z,100001.19
2022-10-21T17:32:14.583Z,99988.19
2022-10-21T17:34:42.192Z,99990.00
2022-10-21T17:37:10.181Z,99986.88
2022-10-21T17:39:37.538Z,99985.34
2022-10-21T17:42:05.145Z,99986.78
2022-10-21T17:44:32.576Z,99992.22
2022-10-21T17:46:59.906Z,99993.72
2022-10-21T17:49:27.573Z,99987.41
2022-10-21T17:51:54.903Z,99991.81
2022-10-21T17:54:25.997Z,99988.84
2022-10-21T17:56:57.011Z,99983.13
2022-10-21T17:59:24.635Z,100002.75
2022-10-21T18:01:51.974Z,99992.44
2022-10-21T18:04:20.569Z,99993.47
2022-10-21T18:06:47.966Z,99976.09
2022-10-21T18:09:15.425Z,99981.25
2022-10-21T18:11:43.106Z,99984.00
2022-10-21T18:14:10.406Z,99976.84
2022-10-21T18:16:37.861Z,99968.81
2022-10-21T18:19:05.459Z,99972.69
2022-10-21T18:21:32.746Z,99970.94
2022-10-21T18:24:00.093Z,99968.81
2022-10-21T18:26:29.397Z,99977.44
2022-10-21T18:28:58.311Z,99978.37
2022-10-21T18:31:28.138Z,99969.03
2022-10-21T18:33:55.929Z,99980.69
2022-10-21T18:36:23.377Z,99968.44
2022-10-21T18:38:50.672Z,99963.00
2022-10-21T18:41:20.904Z,99962.06
2022-10-21T18:43:52.575Z,99960.12
2022-10-21T18:46:20.281Z,99948.47
2022-10-21T18:48:47.828Z,99948.66
2022-10-21T18:51:19.106Z,99945.63
2022-10-21T18:53:49.810Z,99939.91
2022-10-21T18:56:20.126Z,99934.72
2022-10-21T18:58:47.737Z,99935.50
2022-10-21T19:01:15.285Z,99938.22
2022-10-21T19:03:42.909Z,99941.78
2022-10-21T19:06:33.896Z,99931.87
2022-10-21T19:09:01.466Z,99923.34
2022-10-21T19:11:29.185Z,99932.97
2022-10-21T19:13:56.549Z,99924.25
2022-10-21T19:16:23.940Z,99923.50
2022-10-21T19:18:51.555Z,99916.03
2022-10-21T19:21:19.660Z,99919.03
2022-10-21T19:23:46.979Z,99915.56
2022-10-21T19:26:14.922Z,99921.41
2022-10-21T19:28:42.344Z,99916.06
2022-10-21T19:31:11.516Z,99918.53
2022-10-21T19:33:39.201Z,99928.22
2022-10-21T19:36:06.934Z,99928.44
2022-10-21T19:38:49.759Z,99926.59
2022-10-21T19:41:21.192Z,99922.38
2022-10-21T19:43:48.824Z,99925.56
2022-10-21T19:46:21.042Z,99919.03
2022-10-21T19:48:51.321Z,99918.84
2022-10-21T19:51:19.685Z,99935.53
2022-10-21T19:53:47.264Z,99929.84
2022-10-21T19:56:14.938Z,99919.19
2022-10-21T19:58:47.006Z,99917.34
2022-10-21T20:01:24.891Z,99907.16
2022-10-21T20:03:52.717Z,99908.72
2022-10-21T20:06:27.530Z,99909.28
2022-10-21T20:08:56.557Z,99914.97
2022-10-21T20:11:24.239Z,99907.34
2022-10-21T20:13:51.643Z,99903.38
2022-10-21T20:16:22.167Z,99906.38
2022-10-21T20:18:49.634Z,99915.25
2022-10-21T20:21:16.939Z,99907.53
2022-10-21T20:23:44.506Z,99906.88
2022-10-21T20:26:11.866Z,99914.91
2022-10-21T20:28:39.253Z,99920.84
2022-10-21T20:31:07.737Z,99922.03
2022-10-21T20:33:36.383Z,99926.59
2022-10-21T20:36:09.001Z,99924.91
2022-10-21T20:38:36.615Z,99922.19
2022-10-21T20:41:06.879Z,99921.78
2022-10-21T20:43:35.214Z,99914.22
2022-10-21T20:46:03.596Z,99913.53
2022-10-21T20:48:31.531Z,99916.06
2022-10-21T20:51:15.654Z,99906.19
2022-10-21T20:53:50.769Z,99906.41
2022-10-21T20:56:18.208Z,99903.81
2022-10-21T20:58:45.780Z,99903.59
2022-10-21T21:01:17.937Z,99904.56
2022-10-21T21:03:46.248Z,99907.31
2022-10-21T21:06:13.609Z,99909.47
2022-10-21T21:08:48.820Z,99911.75
2022-10-21T21:11:21.260Z,99900.81
2022-10-21T21:13:48.665Z,99894.78
2022-10-21T21:16:20.896Z,99898.69
2022-10-21T21:18:57.901Z,99891.38
2022-10-21T21:21:26.805Z,99895.88
2022-10-21T21:23:54.402Z,99893.81
2022-10-21T21:26:26.084Z,99907.41
2022-10-21T21:28:53.747Z,99909.66
2022-10-21T21:31:22.354Z,99903.78
2022-10-21T21:33:49.853Z,99901.56
2022-10-21T21:36:18.167Z,99899.16
2022-10-21T21:38:45.651Z,99883.81
2022-10-21T21:41:13.397Z,99879.34
2022-10-21T21:43:41.590Z,99886.97
2022-10-21T21:46:08.955Z,99885.84
2022-10-21T21:48:36.265Z,99895.91
2022-10-21T21:51:05.974Z,99881.72
2022-10-21T21:53:33.330Z,99871.25
2022-10-21T21:56:03.348Z,99877.25
2022-10-21T21:58:31.169Z,99877.94
2022-10-21T22:00:58.501Z,99866.38
2022-10-21T22:03:26.185Z,99873.50
2022-10-21T22:05:53.556Z,99877.56
2022-10-21T22:08:20.916Z,99883.03
2022-10-21T22:10:48.495Z,99873.81
2022-10-21T22:13:15.808Z,99874.25
2022-10-21T22:15:48.075Z,99872.66
2022-10-21T22:18:16.264Z,99881.63
2022-10-21T22:20:43.594Z,99885.44
2022-10-21T22:23:10.929Z,99888.63
2022-10-21T22:25:38.513Z,99883.09
2022-10-21T22:28:05.878Z,99888.50
2022-10-21T22:30:33.216Z,99888.63
2022-10-21T22:33:00.830Z,99890.41
2022-10-21T22:35:28.288Z,99886.19
2022-10-21T22:37:55.629Z,99879.22
2022-10-21T22:40:23.255Z,99879.59
2022-10-21T22:42:50.590Z,99884.81
2022-10-21T22:45:17.941Z,99871.34
2022-10-21T22:47:45.518Z,99876.53
2022-10-21T22:50:12.850Z,99867.75
2022-10-21T22:52:41.364Z,99864.06
2022-10-21T22:55:10.159Z,99867.19
2022-10-21T22:57:37.545Z,99864.91
2022-10-21T23:00:05.298Z,99871.97
2022-10-21T23:02:32.905Z,99866.28
2022-10-21T23:05:00.230Z,99867.56
2022-10-21T23:07:27.705Z,99876.03
2022-10-21T23:09:55.333Z,99868.16
2022-10-21T23:12:22.707Z,99872.72
2022-10-21T23:14:50.017Z,99862.25
2022-10-21T23:17:17.598Z,99862.72
2022-10-21T23:19:44.946Z,99864.03
2022-10-21T23:22:12.306Z,99870.00
2022-10-21T23:24:39.928Z,99866.09
2022-10-21T23:27:07.243Z,99861.72
2022-10-21T23:29:34.554Z,99859.25
2022-10-21T23:32:02.116Z,99853.81
2022-10-21T23:34:30.474Z,99845.75
2022-10-21T23:36:57.785Z,99857.78
2022-10-21T23:39:25.420Z,99849.56
2022-10-21T23:41:52.730Z,99857.59
2022-10-21T23:44:20.142Z,99859.75
2022-10-21T23:46:47.740Z,99859.47
2022-10-21T23:49:15.109Z,99865.25
2022-10-21T23:51:42.462Z,99872.09
2022-10-21T23:54:10.206Z,99876.22
2022-10-21T23:56:37.546Z,99868.12
2022-10-21T23:59:06.909Z,99867.88
